createdAt,value
2023-03-28T00:01:31.314Z,99.90
2023-03-28T00:05:32.926Z,99.90
2023-03-28T00:09:34.746Z,99.90
2023-03-28T00:13:36.824Z,99.90
2023-03-28T00:17:41.558Z,99.90
2023-03-28T00:21:46.717Z,99.90
2023-03-28T00:25:48.733Z,99.90
2023-03-28T00:29:50.319Z,99.90
2023-03-28T00:33:52.130Z,99.90
2023-03-28T00:37:57.784Z,99.90
2023-03-28T00:42:01.484Z,99.90
2023-03-28T00:46:08.944Z,99.90
2023-03-28T00:50:31.443Z,99.90
2023-03-28T00:54:34.119Z,99.90
2023-03-28T00:58:39.279Z,99.90
2023-03-28T01:02:41.806Z,99.90
2023-03-28T01:06:47.841Z,99.90
2023-03-28T01:10:49.505Z,99.90
2023-03-28T01:14:51.070Z,99.90
2023-03-28T01:18:52.849Z,99.90
2023-03-28T01:22:56.424Z,99.90
2023-03-28T01:27:13.229Z,99.90
2023-03-28T01:31:41.254Z,99.90
2023-03-28T01:35:46.293Z,99.90
2023-03-28T01:40:06.619Z,99.90
2023-03-28T01:44:08.132Z,99.90
2023-03-28T01:48:15.949Z,99.90
2023-03-28T01:52:24.202Z,99.90
2023-03-28T01:56:30.606Z,99.90
2023-03-28T02:00:35.412Z,99.90
2023-03-28T02:04:38.651Z,99.90
2023-03-28T02:08:41.479Z,99.90
2023-03-28T02:12:46.558Z,99.90
2023-03-28T02:16:50.848Z,99.90
2023-03-28T02:20:54.884Z,99.90
2023-03-28T02:24:56.603Z,99.90
2023-03-28T02:28:59.127Z,99.90
2023-03-28T03:40:27.166Z,99.90
2023-03-28T03:44:28.840Z,99.90
2023-03-28T03:48:30.486Z,99.90
2023-03-28T03:52:32.047Z,99.90
2023-03-28T03:56:33.670Z,99.90
2023-03-28T04:00:37.505Z,99.90
2023-03-28T04:04:41.384Z,99.90
2023-03-28T04:08:42.994Z,99.90
2023-03-28T04:12:44.553Z,99.90
2023-03-28T04:16:46.436Z,99.90
2023-03-28T04:20:54.237Z,99.90
2023-03-28T04:24:57.046Z,99.90
2023-03-28T04:29:00.352Z,99.90
2023-03-28T04:33:01.977Z,99.90
2023-03-28T04:37:03.731Z,99.90
2023-03-28T04:41:08.259Z,99.90
2023-03-28T04:45:10.479Z,99.90
2023-03-28T04:49:12.049Z,99.90
2023-03-28T04:53:13.946Z,99.90
2023-03-28T04:57:15.946Z,99.90
2023-03-28T05:01:17.796Z,99.90
2023-03-28T05:05:20.636Z,99.90
2023-03-28T05:09:22.775Z,99.90
2023-03-28T05:13:25.899Z,99.90
2023-03-28T05:17:27.536Z,99.90
2023-03-28T05:21:32.297Z,99.90
2023-03-28T05:25:33.904Z,99.90
2023-03-28T05:29:35.567Z,99.90
2023-03-28T05:33:37.172Z,99.90
2023-03-28T05:37:41.418Z,99.90
2023-03-28T05:41:44.274Z,99.90
2023-03-28T05:45:49.265Z,99.90
2023-03-28T05:49:51.702Z,99.90
2023-03-28T05:53:54.814Z,99.90
2023-03-28T05:57:57.412Z,99.90
2023-03-28T06:01:59.631Z,99.90
2023-03-28T06:06:01.766Z,99.90
2023-03-28T06:10:04.420Z,99.90
2023-03-28T06:14:06.510Z,99.90
2023-03-28T06:18:08.087Z,99.90
2023-03-28T06:22:09.654Z,99.90
2023-03-28T06:26:11.264Z,99.90
2023-03-28T06:30:13.228Z,99.90
2023-03-28T06:34:14.800Z,99.90
2023-03-28T06:38:16.566Z,99.90
2023-03-28T06:42:18.201Z,99.90
2023-03-28T06:46:20.442Z,99.90
2023-03-28T06:50:22.073Z,99.90
2023-03-28T06:54:23.828Z,99.90
2023-03-28T06:58:25.610Z,99.90
2023-03-28T07:02:27.270Z,99.90
2023-03-28T07:06:29.137Z,99.90
2023-03-28T07:10:30.715Z,99.90
2023-03-28T07:14:32.337Z,99.90
2023-03-28T07:18:34.419Z,99.90
2023-03-28T07:22:36.058Z,99.90
2023-03-28T07:26:37.582Z,99.90
2023-03-28T07:30:39.326Z,99.90
2023-03-28T07:34:40.912Z,99.90
2023-03-28T07:38:42.824Z,99.90
2023-03-28T07:42:44.386Z,99.90
2023-03-28T07:46:46.870Z,99.90
2023-03-28T07:50:49.861Z,99.90
2023-03-28T07:54:53.865Z,99.90
2023-03-28T07:58:55.447Z,99.90
2023-03-28T08:02:57.837Z,99.90
2023-03-28T08:07:00.209Z,99.90
2023-03-28T08:11:02.018Z,99.90
2023-03-28T08:15:04.284Z,99.90
2023-03-28T08:19:11.199Z,99.90
2023-03-28T08:23:13.557Z,99.90
2023-03-28T08:27:15.075Z,99.90
2023-03-28T08:31:16.897Z,99.90
2023-03-28T08:35:18.678Z,99.90
2023-03-28T08:39:20.345Z,99.90
2023-03-28T08:43:26.414Z,99.20
2023-03-28T08:47:32.399Z,99.90
2023-03-28T08:51:42.555Z,98.40
2023-03-28T08:55:44.109Z,97.80
2023-03-28T08:59:53.627Z,99.90
2023-03-28T09:03:55.396Z,97.50
2023-03-28T09:08:06.170Z,96.80
2023-03-28T09:12:18.266Z,95.20
2023-03-28T09:16:42.764Z,92.40
2023-03-28T09:20:52.755Z,92.80
2023-03-28T09:25:13.074Z,92.80
2023-03-28T09:29:19.456Z,92.60
2023-03-28T09:33:25.922Z,92.90
2023-03-28T09:37:29.387Z,92.80
2023-03-28T09:41:40.795Z,93.10
2023-03-28T09:45:49.049Z,93.30
2023-03-28T09:49:56.426Z,92.40
2023-03-28T09:54:05.731Z,92.40
2023-03-28T09:58:08.484Z,91.10
2023-03-28T10:02:39.835Z,91.90
2023-03-28T10:06:42.208Z,87.50
2023-03-28T10:10:43.823Z,90.10
2023-03-28T10:14:48.674Z,85.20
2023-03-28T10:18:50.532Z,85.40
2023-03-28T10:22:54.620Z,86.00
2023-03-28T10:27:06.876Z,86.20
2023-03-28T10:31:19.625Z,86.40
2023-03-28T10:35:26.249Z,89.80
2023-03-28T10:39:29.329Z,90.60
2023-03-28T10:43:31.929Z,87.90
2023-03-28T10:47:34.028Z,90.60
2023-03-28T10:51:38.114Z,89.90
2023-03-28T10:55:55.683Z,89.10
2023-03-28T11:00:07.173Z,85.70
2023-03-28T11:04:12.107Z,86.80
2023-03-28T11:08:32.166Z,86.30
2023-03-28T11:12:51.174Z,86.40
2023-03-28T11:17:01.254Z,84.70
2023-03-28T11:21:12.407Z,85.50
2023-03-28T11:25:37.274Z,87.60
2023-03-28T11:29:45.881Z,85.60
2023-03-28T11:33:53.343Z,86.00
2023-03-28T11:38:06.386Z,85.80
2023-03-28T11:42:10.279Z,86.30
2023-03-28T11:46:18.202Z,87.70
2023-03-28T11:50:28.201Z,89.10
2023-03-28T11:54:56.391Z,88.00
2023-03-28T11:59:03.527Z,87.50
2023-03-28T12:03:17.397Z,87.30
2023-03-28T12:07:21.950Z,86.80
2023-03-28T12:11:28.221Z,86.70
2023-03-28T12:15:50.249Z,86.20
2023-03-28T12:19:53.705Z,85.20
2023-03-28T12:24:05.727Z,85.00
2023-03-28T12:28:29.304Z,88.70
2023-03-28T12:32:40.545Z,86.20
2023-03-28T12:36:48.957Z,85.50
2023-03-28T12:40:55.067Z,84.70
2023-03-28T12:45:01.214Z,83.40
2023-03-28T12:49:08.729Z,83.40
2023-03-28T12:53:11.907Z,79.90
2023-03-28T12:57:36.373Z,81.70
2023-03-28T13:01:42.747Z,81.00
2023-03-28T13:05:47.821Z,83.30
2023-03-28T13:09:55.366Z,82.00
2023-03-28T13:14:03.856Z,82.60
2023-03-28T13:18:17.880Z,81.40
2023-03-28T13:22:27.738Z,80.30
2023-03-28T13:26:49.231Z,81.30
2023-03-28T13:31:04.595Z,81.30
2023-03-28T13:35:06.446Z,78.60
2023-03-28T13:39:09.959Z,80.20
2023-03-28T13:43:43.611Z,79.50
2023-03-28T13:47:47.233Z,79.40
2023-03-28T13:51:52.150Z,79.20
2023-03-28T13:56:07.344Z,80.00
2023-03-28T14:00:13.800Z,80.30
2023-03-28T14:04:23.230Z,78.70
2023-03-28T14:08:25.888Z,79.80
2023-03-28T14:12:29.293Z,77.80
2023-03-28T14:16:31.455Z,76.20
2023-03-28T14:20:33.640Z,78.20
2023-03-28T14:24:40.467Z,79.50
2023-03-28T14:28:48.246Z,79.10
2023-03-28T14:33:07.463Z,79.20
2023-03-28T14:37:17.563Z,78.10
2023-03-28T14:41:24.283Z,76.30
2023-03-28T14:45:27.080Z,75.80
2023-03-28T14:49:28.627Z,76.30
2023-03-28T14:53:34.297Z,78.00
2023-03-28T14:57:37.687Z,78.30
2023-03-28T15:01:39.367Z,77.40
2023-03-28T15:05:43.191Z,77.40
2023-03-28T15:09:44.832Z,78.40
2023-03-28T15:13:48.424Z,79.40
2023-03-28T15:17:51.400Z,79.00
2023-03-28T15:21:58.727Z,77.20
2023-03-28T15:26:05.909Z,77.60
2023-03-28T15:30:17.392Z,79.60
2023-03-28T15:34:23.751Z,77.40
2023-03-28T15:38:26.912Z,77.60
2023-03-28T15:42:34.061Z,78.20
2023-03-28T15:46:36.206Z,78.20
2023-03-28T15:50:38.512Z,80.00
2023-03-28T15:54:42.141Z,80.10
2023-03-28T15:58:44.845Z,80.40
2023-03-28T16:02:46.815Z,79.10
2023-03-28T16:06:48.821Z,78.20
2023-03-28T16:10:50.431Z,75.60
2023-03-28T16:15:01.164Z,76.00
2023-03-28T16:19:13.496Z,76.80
2023-03-28T16:23:15.032Z,78.50
2023-03-28T16:27:17.269Z,78.80
2023-03-28T16:31:18.844Z,80.80
2023-03-28T16:35:20.726Z,81.10
2023-03-28T16:39:22.300Z,82.40
2023-03-28T16:43:23.910Z,82.00
2023-03-28T16:47:25.859Z,84.40
2023-03-28T16:51:29.989Z,84.70
2023-03-28T16:55:31.553Z,84.30
2023-03-28T16:59:33.442Z,85.50
2023-03-28T17:03:41.307Z,85.90
2023-03-28T17:07:43.593Z,85.90
2023-03-28T17:11:45.276Z,85.80
2023-03-28T17:15:46.983Z,84.10
2023-03-28T17:19:49.432Z,83.70
2023-03-28T17:23:51.353Z,85.10
2023-03-28T17:27:53.192Z,84.00
2023-03-28T17:31:54.845Z,84.70
2023-03-28T17:35:56.980Z,85.30
2023-03-28T17:39:58.958Z,86.00
2023-03-28T17:44:00.890Z,85.70
2023-03-28T17:48:02.685Z,86.60
2023-03-28T17:52:04.482Z,86.70
2023-03-28T17:56:07.095Z,87.40
2023-03-28T18:00:09.588Z,87.80
2023-03-28T18:04:12.380Z,88.90
2023-03-28T18:08:14.159Z,90.90
2023-03-28T18:12:15.818Z,94.80
2023-03-28T18:16:18.519Z,97.80
2023-03-28T18:20:21.766Z,99.90
2023-03-28T18:24:24.686Z,99.90
2023-03-28T18:28:26.546Z,99.90
2023-03-28T18:32:28.121Z,99.90
2023-03-28T18:36:29.896Z,99.90
2023-03-28T18:40:31.530Z,99.90
2023-03-28T18:44:35.681Z,99.90
2023-03-28T18:48:37.406Z,99.90
2023-03-28T18:52:39.000Z,99.90
2023-03-28T18:56:40.639Z,99.90
2023-03-28T19:00:42.621Z,99.90
2023-03-28T19:04:44.371Z,99.90
2023-03-28T19:08:47.294Z,99.90
2023-03-28T19:12:48.902Z,99.90
2023-03-28T19:16:50.910Z,99.90
2023-03-28T19:20:54.947Z,99.90
2023-03-28T19:24:56.766Z,99.90
2023-03-28T19:28:59.641Z,99.90
2023-03-28T19:33:01.344Z,99.90
2023-03-28T19:37:03.056Z,99.90
2023-03-28T19:41:10.045Z,99.90
2023-03-28T19:49:31.500Z,99.90
2023-03-28T19:53:33.359Z,99.90
2023-03-28T19:57:35.219Z,99.90
2023-03-28T20:01:37.086Z,99.90
2023-03-28T20:05:43.074Z,99.90
2023-03-28T20:09:48.669Z,99.90
2023-03-28T20:13:50.429Z,99.90
2023-03-28T20:17:52.129Z,99.90
2023-03-28T20:21:53.747Z,99.90
2023-03-28T20:25:55.793Z,99.90
2023-03-28T20:29:58.093Z,99.90
2023-03-28T20:34:00.478Z,99.90
2023-03-28T20:38:02.373Z,99.90
2023-03-28T20:42:05.528Z,99.90
2023-03-28T20:46:07.289Z,99.90
2023-03-28T20:50:09.448Z,99.90
2023-03-28T20:54:11.082Z,99.90
2023-03-28T20:58:12.630Z,99.90
2023-03-28T21:02:14.795Z,99.90
2023-03-28T21:06:18.098Z,99.90
2023-03-28T21:10:20.711Z,99.90
2023-03-28T21:14:22.473Z,99.90
2023-03-28T21:18:24.157Z,99.90
2023-03-28T21:22:25.997Z,99.90
2023-03-28T21:26:28.855Z,99.90
2023-03-28T21:30:30.564Z,99.90
2023-03-28T21:34:33.895Z,99.90
2023-03-28T21:38:35.987Z,99.90
2023-03-28T21:42:37.916Z,99.90
2023-03-28T21:46:39.486Z,99.90
2023-03-28T21:50:41.433Z,99.90
2023-03-28T21:54:43.035Z,99.90
2023-03-28T21:58:44.667Z,99.90
2023-03-28T22:02:46.281Z,99.90
2023-03-28T22:06:47.956Z,99.90
2023-03-28T22:10:52.567Z,99.90
2023-03-28T22:14:54.202Z,99.90
2023-03-28T22:18:57.107Z,99.90
2023-03-28T22:23:01.017Z,99.90
2023-03-28T22:27:02.630Z,99.90
2023-03-28T22:31:04.613Z,99.90
2023-03-28T22:35:06.911Z,99.90
2023-03-28T22:39:08.432Z,99.90
2023-03-28T22:43:10.275Z,99.90
2023-03-28T22:47:11.963Z,99.90
2023-03-28T22:51:15.599Z,99.90
2023-03-28T22:55:17.383Z,99.90
2023-03-28T22:59:18.897Z,99.90
2023-03-28T23:03:20.542Z,99.90
2023-03-28T23:07:22.077Z,99.90
2023-03-28T23:11:23.609Z,99.90
2023-03-28T23:15:25.504Z,99.90
2023-03-28T23:19:27.080Z,99.90
2023-03-28T23:23:36.289Z,99.90
2023-03-28T23:27:38.383Z,99.90
2023-03-28T23:31:39.958Z,99.90
2023-03-28T23:35:43.122Z,99.90
2023-03-28T23:39:44.722Z,99.90
2023-03-28T23:43:46.330Z,99.90
2023-03-28T23:47:48.009Z,99.90
2023-03-28T23:51:49.776Z,99.90
2023-03-28T23:55:51.707Z,99.90
2023-03-28T23:59:53.255Z,99.90
